createdAt,value
2022-12-18T00:00:32.472Z,52.60
2022-12-18T00:03:04.070Z,50.50
2022-12-18T00:05:36.539Z,50.00
2022-12-18T00:08:09.473Z,51.30
2022-12-18T00:10:41.188Z,52.40
2022-12-18T00:13:12.756Z,52.30
2022-12-18T00:15:44.540Z,55.40
2022-12-18T00:18:18.966Z,48.90
2022-12-18T00:20:52.320Z,49.30
2022-12-18T00:23:23.842Z,52.60
2022-12-18T00:25:55.323Z,45.50
2022-12-18T00:28:28.040Z,51.50
2022-12-18T00:31:06.138Z,48.70
2022-12-18T00:33:38.541Z,55.40
2022-12-18T00:36:14.137Z,51.00
2022-12-18T00:38:45.867Z,51.50
2022-12-18T00:41:39.944Z,48.50
2022-12-18T00:44:13.179Z,54.00
2022-12-18T00:46:45.995Z,51.00
2022-12-18T00:49:18.559Z,47.80
2022-12-18T00:51:51.570Z,45.20
2022-12-18T00:54:23.452Z,54.10
2022-12-18T00:56:56.420Z,45.30
2022-12-18T00:59:28.347Z,62.30
2022-12-18T01:02:00.013Z,50.80
2022-12-18T01:04:33.468Z,52.80
2022-12-18T01:07:05.074Z,52.40
2022-12-18T01:09:36.991Z,48.70
2022-12-18T01:12:10.229Z,49.50
2022-12-18T01:14:42.141Z,52.10
2022-12-18T01:17:13.812Z,45.70
2022-12-18T01:19:46.025Z,52.00
2022-12-18T01:22:17.642Z,49.80
2022-12-18T01:24:49.278Z,52.10
2022-12-18T01:27:20.848Z,46.00
2022-12-18T01:29:53.357Z,52.70
2022-12-18T01:32:25.452Z,48.30
2022-12-18T01:34:57.082Z,47.80
2022-12-18T01:37:28.777Z,51.90
2022-12-18T01:40:00.420Z,43.60
2022-12-18T01:42:32.071Z,52.90
2022-12-18T01:45:24.017Z,51.50
2022-12-18T01:47:57.929Z,47.90
2022-12-18T01:50:33.794Z,50.40
2022-12-18T01:53:08.644Z,55.30
2022-12-18T01:55:45.286Z,57.70
2022-12-18T01:58:18.052Z,58.80
2022-12-18T02:00:50.067Z,54.70
2022-12-18T02:03:21.824Z,51.90
2022-12-18T02:06:00.078Z,55.40
2022-12-18T02:08:36.646Z,59.00
2022-12-18T02:11:13.687Z,55.20
2022-12-18T02:13:55.282Z,55.20
2022-12-18T02:16:32.840Z,55.90
2022-12-18T02:19:08.992Z,58.00
2022-12-18T02:21:51.350Z,55.70
2022-12-18T02:24:36.788Z,52.80
2022-12-18T02:27:10.938Z,48.20
2022-12-18T02:29:54.331Z,53.70
2022-12-18T02:32:34.139Z,56.30
2022-12-18T02:35:08.734Z,40.00
2022-12-18T02:37:41.719Z,50.30
2022-12-18T02:40:16.546Z,51.20
2022-12-18T02:45:18.452Z,46.70
2022-12-18T02:47:52.278Z,50.00
2022-12-18T02:50:31.452Z,49.10
2022-12-18T02:53:12.836Z,53.70
2022-12-18T02:55:57.025Z,44.90
2022-12-18T02:58:36.922Z,52.60
2022-12-18T03:01:17.843Z,51.90
2022-12-18T03:03:55.047Z,56.50
2022-12-18T03:06:31.928Z,55.80
2022-12-18T03:09:10.789Z,52.70
2022-12-18T03:12:08.209Z,54.10
2022-12-18T03:14:43.564Z,49.90
2022-12-18T03:17:20.127Z,60.50
2022-12-18T03:19:55.012Z,54.50
2022-12-18T03:22:29.936Z,53.40
2022-12-18T03:25:03.820Z,58.20
2022-12-18T03:27:39.288Z,52.10
2022-12-18T03:30:15.643Z,56.20
2022-12-18T03:32:50.827Z,49.70
2022-12-18T03:35:29.122Z,54.20
2022-12-18T03:38:00.988Z,57.80
2022-12-18T03:40:42.272Z,58.30
2022-12-18T03:43:19.472Z,48.30
2022-12-18T03:45:55.495Z,55.50
2022-12-18T03:48:36.761Z,62.00
2022-12-18T03:51:12.757Z,50.50
2022-12-18T03:53:53.177Z,49.40
2022-12-18T03:56:26.656Z,54.60
2022-12-18T03:58:59.427Z,56.30
2022-12-18T04:01:36.399Z,54.60
2022-12-18T04:04:10.994Z,57.20
2022-12-18T04:06:43.503Z,48.40
2022-12-18T04:09:15.381Z,54.60
2022-12-18T04:11:47.074Z,60.10
2022-12-18T04:14:18.919Z,56.60
2022-12-18T04:16:50.618Z,52.70
2022-12-18T04:19:22.216Z,56.00
2022-12-18T04:21:53.889Z,52.20
2022-12-18T04:24:25.580Z,54.40
2022-12-18T04:26:57.186Z,51.80
2022-12-18T04:29:32.635Z,54.50
2022-12-18T04:32:09.048Z,51.60
2022-12-18T04:34:40.645Z,48.40
2022-12-18T04:37:12.608Z,53.60
2022-12-18T04:39:44.345Z,47.20
2022-12-18T04:42:15.842Z,57.30
2022-12-18T04:44:47.323Z,52.10
2022-12-18T04:47:18.889Z,52.60
2022-12-18T04:49:52.864Z,51.50
2022-12-18T04:52:24.558Z,48.20
2022-12-18T04:54:56.077Z,54.80
2022-12-18T04:57:27.794Z,49.10
2022-12-18T04:59:59.405Z,54.10
2022-12-18T05:02:31.166Z,48.70
2022-12-18T05:05:02.813Z,49.10
2022-12-18T05:07:34.522Z,54.10
2022-12-18T05:10:06.913Z,49.30
2022-12-18T05:13:00.058Z,52.70
2022-12-18T05:15:34.796Z,54.40
2022-12-18T05:18:07.354Z,53.20
2022-12-18T05:20:38.844Z,51.60
2022-12-18T05:23:10.556Z,50.30
2022-12-18T05:25:42.010Z,53.20
2022-12-18T05:28:13.576Z,43.80
2022-12-18T05:30:45.062Z,47.80
2022-12-18T05:33:16.586Z,49.30
2022-12-18T05:35:52.456Z,51.10
2022-12-18T05:38:24.746Z,49.40
2022-12-18T05:40:57.084Z,45.10
2022-12-18T05:43:30.050Z,51.00
2022-12-18T05:46:05.755Z,46.70
2022-12-18T05:48:37.586Z,48.00
2022-12-18T05:51:11.212Z,47.70
2022-12-18T05:53:43.593Z,46.60
2022-12-18T05:56:17.527Z,46.00
2022-12-18T05:58:50.253Z,47.10
2022-12-18T06:01:24.306Z,50.70
2022-12-18T06:03:56.405Z,49.70
2022-12-18T06:06:29.784Z,53.40
2022-12-18T06:09:02.631Z,50.50
2022-12-18T06:11:34.244Z,52.40
2022-12-18T06:14:06.384Z,47.40
2022-12-18T06:16:38.116Z,51.00
2022-12-18T06:19:09.953Z,53.80
2022-12-18T06:21:41.438Z,48.10
2022-12-18T06:24:13.041Z,44.40
2022-12-18T06:26:44.543Z,53.10
2022-12-18T06:29:16.153Z,47.20
2022-12-18T06:31:47.787Z,50.00
2022-12-18T06:34:19.309Z,42.20
2022-12-18T06:36:50.892Z,47.50
2022-12-18T06:39:22.544Z,47.80
2022-12-18T06:41:54.217Z,42.50
2022-12-18T06:44:25.810Z,48.60
2022-12-18T06:46:57.404Z,46.30
2022-12-18T06:49:30.706Z,49.40
2022-12-18T06:52:02.429Z,48.50
2022-12-18T06:54:33.904Z,46.10
2022-12-18T06:57:05.568Z,44.80
2022-12-18T06:59:37.160Z,45.80
2022-12-18T07:02:08.840Z,44.20
2022-12-18T07:04:40.544Z,44.00
2022-12-18T07:07:12.287Z,47.10
2022-12-18T07:09:46.670Z,51.40
2022-12-18T07:12:18.380Z,47.30
2022-12-18T07:14:50.081Z,43.60
2022-12-18T07:17:21.617Z,46.90
2022-12-18T07:19:54.222Z,46.30
2022-12-18T07:22:27.540Z,47.70
2022-12-18T07:24:58.954Z,47.70
2022-12-18T07:27:30.654Z,46.90
2022-12-18T07:30:02.628Z,46.30
2022-12-18T07:32:34.649Z,55.10
2022-12-18T07:35:06.712Z,55.10
2022-12-18T07:37:38.281Z,44.70
2022-12-18T07:40:12.238Z,48.90
2022-12-18T07:42:43.746Z,54.80
2022-12-18T07:45:15.921Z,51.60
2022-12-18T07:47:47.453Z,50.50
2022-12-18T07:50:19.506Z,48.20
2022-12-18T07:52:51.209Z,47.30
2022-12-18T07:55:22.686Z,43.80
2022-12-18T07:57:59.257Z,45.50
2022-12-18T08:00:32.533Z,47.70
2022-12-18T08:03:04.476Z,45.70
2022-12-18T08:05:36.038Z,47.20
2022-12-18T08:08:07.920Z,47.10
2022-12-18T08:10:40.281Z,68.00
2022-12-18T08:13:11.758Z,69.40
2022-12-18T08:15:43.290Z,78.20
2022-12-18T08:18:14.730Z,80.40
2022-12-18T08:20:46.393Z,79.80
2022-12-18T08:23:18.051Z,83.60
2022-12-18T08:25:49.915Z,83.20
2022-12-18T08:28:21.821Z,86.00
2022-12-18T08:30:57.612Z,67.90
2022-12-18T08:33:30.444Z,61.80
2022-12-18T08:36:02.704Z,56.50
2022-12-18T08:38:35.989Z,51.10
2022-12-18T08:41:09.088Z,50.10
2022-12-18T08:43:57.641Z,50.80
2022-12-18T08:46:33.764Z,48.90
2022-12-18T08:49:05.917Z,47.00
2022-12-18T08:51:38.429Z,50.70
2022-12-18T08:54:13.640Z,55.60
2022-12-18T08:56:45.190Z,57.00
2022-12-18T08:59:19.770Z,51.40
2022-12-18T09:01:52.612Z,53.30
2022-12-18T09:04:24.540Z,50.80
2022-12-18T09:06:56.225Z,54.10
2022-12-18T09:09:28.249Z,43.50
2022-12-18T09:11:59.728Z,56.70
2022-12-18T09:14:31.460Z,58.80
2022-12-18T09:17:03.250Z,56.90
2022-12-18T09:19:35.170Z,63.80
2022-12-18T09:22:06.647Z,65.10
2022-12-18T09:24:38.281Z,58.50
2022-12-18T09:27:10.053Z,61.10
2022-12-18T09:29:41.661Z,61.40
2022-12-18T09:32:16.369Z,66.70
2022-12-18T09:34:53.619Z,64.50
2022-12-18T09:37:25.220Z,61.30
2022-12-18T09:39:56.851Z,57.10
2022-12-18T09:42:28.520Z,60.80
2022-12-18T09:45:01.075Z,64.20
2022-12-18T09:47:38.773Z,58.10
2022-12-18T09:50:24.800Z,56.90
2022-12-18T09:52:59.468Z,60.80
2022-12-18T09:55:37.572Z,64.90
2022-12-18T09:58:17.967Z,63.10
2022-12-18T10:00:49.581Z,63.50
2022-12-18T10:03:21.276Z,59.60
2022-12-18T10:06:02.129Z,65.40
2022-12-18T10:08:45.339Z,63.20
2022-12-18T10:11:32.390Z,74.50
2022-12-18T10:14:11.422Z,60.60
2022-12-18T10:16:52.086Z,70.00
2022-12-18T10:19:53.995Z,60.10
2022-12-18T10:22:40.789Z,53.90
2022-12-18T10:25:24.574Z,69.50
2022-12-18T10:28:00.273Z,70.80
2022-12-18T10:30:31.983Z,75.60
2022-12-18T10:33:06.972Z,69.70
2022-12-18T10:35:39.328Z,68.60
2022-12-18T10:38:27.121Z,61.00
2022-12-18T10:41:01.143Z,66.00
2022-12-18T10:43:35.037Z,69.90
2022-12-18T10:46:18.284Z,68.40
2022-12-18T10:49:00.546Z,58.30
2022-12-18T10:51:35.718Z,65.80
2022-12-18T10:54:09.717Z,61.30
2022-12-18T10:56:41.892Z,58.40
2022-12-18T10:59:17.094Z,57.90
2022-12-18T11:01:56.505Z,53.00
2022-12-18T11:04:30.109Z,54.10
2022-12-18T11:07:04.281Z,57.80
2022-12-18T11:09:37.442Z,53.30
2022-12-18T11:12:18.987Z,52.20
2022-12-18T11:14:53.365Z,54.60
2022-12-18T11:17:30.822Z,56.20
2022-12-18T11:20:04.055Z,50.80
2022-12-18T11:22:37.894Z,53.60
2022-12-18T11:25:33.032Z,54.80
2022-12-18T11:28:07.392Z,56.10
2022-12-18T11:30:40.404Z,55.50
2022-12-18T11:33:18.345Z,57.30
2022-12-18T11:35:54.591Z,61.10
2022-12-18T11:38:29.519Z,62.70
2022-12-18T11:41:06.770Z,63.80
2022-12-18T11:43:41.671Z,61.40
2022-12-18T11:46:19.812Z,57.10
2022-12-18T11:48:59.148Z,62.30
2022-12-18T11:51:36.263Z,65.50
2022-12-18T11:54:15.690Z,66.90
2022-12-18T11:56:51.835Z,58.60
2022-12-18T11:59:33.040Z,60.70
2022-12-18T12:02:19.073Z,58.80
2022-12-18T12:05:06.858Z,60.40
2022-12-18T12:07:47.915Z,61.80
2022-12-18T12:10:36.420Z,59.60
2022-12-18T12:13:25.253Z,56.10
2022-12-18T12:16:09.517Z,54.50
2022-12-18T12:18:56.456Z,56.00
2022-12-18T12:21:37.356Z,64.50
2022-12-18T12:24:24.375Z,59.30
2022-12-18T12:27:08.115Z,59.10
2022-12-18T12:29:52.499Z,66.40
2022-12-18T12:32:36.157Z,63.40
2022-12-18T12:35:21.089Z,66.40
2022-12-18T12:38:01.529Z,71.90
2022-12-18T12:41:00.552Z,73.40
2022-12-18T12:43:36.378Z,69.40
2022-12-18T12:46:11.258Z,76.80
2022-12-18T12:48:48.733Z,63.50
2022-12-18T12:51:24.003Z,73.80
2022-12-18T12:53:59.016Z,68.30
2022-12-18T12:56:48.802Z,63.20
2022-12-18T12:59:27.888Z,62.10
2022-12-18T13:02:07.431Z,72.00
2022-12-18T13:04:45.715Z,61.80
2022-12-18T13:07:23.865Z,65.50
2022-12-18T13:10:26.962Z,63.40
2022-12-18T13:13:03.440Z,63.50
2022-12-18T13:16:06.599Z,67.90
2022-12-18T13:18:39.900Z,69.40
2022-12-18T13:21:23.179Z,62.90
2022-12-18T13:23:55.525Z,66.70
2022-12-18T13:26:37.182Z,74.00
2022-12-18T13:29:09.361Z,73.00
2022-12-18T13:32:04.246Z,73.40
2022-12-18T13:34:36.418Z,69.40
2022-12-18T13:37:45.145Z,68.40
2022-12-18T13:40:58.149Z,67.30
2022-12-18T13:43:33.959Z,77.30
2022-12-18T13:46:23.589Z,72.40
2022-12-18T13:49:05.785Z,83.70
2022-12-18T13:51:41.999Z,66.90
2022-12-18T13:54:27.417Z,78.40
2022-12-18T13:56:58.988Z,89.90
2022-12-18T13:59:35.663Z,80.50
2022-12-18T14:02:17.601Z,78.20
2022-12-18T14:04:53.173Z,82.60
2022-12-18T14:07:27.186Z,81.10
2022-12-18T14:10:26.041Z,69.80
2022-12-18T14:13:00.371Z,71.00
2022-12-18T14:15:37.573Z,70.40
2022-12-18T14:18:23.264Z,65.20
2022-12-18T14:20:57.638Z,76.50
2022-12-18T14:23:35.713Z,70.70
2022-12-18T14:26:28.881Z,64.90
2022-12-18T14:29:02.882Z,62.20
2022-12-18T14:31:36.268Z,67.50
2022-12-18T14:34:07.882Z,63.60
2022-12-18T14:36:41.260Z,57.90
2022-12-18T14:39:21.100Z,61.50
2022-12-18T14:41:55.157Z,69.60
2022-12-18T14:44:34.564Z,61.30
2022-12-18T14:47:18.760Z,54.80
2022-12-18T14:49:52.186Z,53.90
2022-12-18T14:52:30.516Z,64.20
2022-12-18T14:55:02.501Z,58.00
2022-12-18T14:57:41.982Z,58.40
2022-12-18T15:00:25.626Z,67.80
2022-12-18T15:02:59.478Z,66.10
2022-12-18T15:05:34.667Z,69.20
2022-12-18T15:08:21.733Z,74.60
2022-12-18T15:10:55.727Z,74.00
2022-12-18T15:13:30.357Z,69.90
2022-12-18T15:16:14.759Z,69.30
2022-12-18T15:18:56.423Z,63.40
2022-12-18T15:21:32.412Z,60.60
2022-12-18T15:24:06.027Z,63.50
2022-12-18T15:26:42.957Z,55.80
2022-12-18T15:29:28.061Z,61.60
2022-12-18T15:32:23.873Z,60.60
2022-12-18T15:35:15.184Z,59.30
2022-12-18T15:37:49.120Z,55.70
2022-12-18T15:40:27.146Z,53.70
2022-12-18T15:43:18.643Z,55.30
2022-12-18T15:45:52.239Z,54.10
2022-12-18T15:48:26.848Z,47.10
2022-12-18T15:51:02.167Z,50.50
2022-12-18T15:53:37.833Z,53.20
2022-12-18T15:56:35.413Z,53.20
2022-12-18T15:59:14.810Z,44.80
2022-12-18T16:01:50.739Z,49.20
2022-12-18T16:04:27.177Z,55.10
2022-12-18T16:07:17.638Z,56.00
2022-12-18T16:09:54.707Z,55.90
2022-12-18T16:12:31.116Z,56.40
2022-12-18T16:15:06.791Z,54.00
2022-12-18T16:17:43.891Z,61.20
2022-12-18T16:20:20.766Z,59.60
2022-12-18T16:22:58.168Z,68.70
2022-12-18T16:25:32.952Z,66.90
2022-12-18T16:28:06.756Z,58.10
2022-12-18T16:30:45.435Z,63.30
2022-12-18T16:33:18.815Z,61.90
2022-12-18T16:36:00.426Z,69.00
2022-12-18T16:38:35.864Z,67.80
2022-12-18T16:41:38.152Z,62.00
2022-12-18T16:44:15.935Z,59.20
2022-12-18T16:46:50.051Z,61.70
2022-12-18T16:49:27.752Z,60.90
2022-12-18T16:52:02.672Z,61.70
2022-12-18T16:54:37.550Z,60.80
2022-12-18T16:57:13.635Z,54.50
2022-12-18T16:59:51.467Z,54.90
2022-12-18T17:02:29.197Z,54.40
2022-12-18T17:05:04.356Z,62.20
2022-12-18T17:07:39.729Z,56.00
2022-12-18T17:10:15.465Z,54.80
2022-12-18T17:12:48.273Z,52.20
2022-12-18T17:15:22.705Z,58.90
2022-12-18T17:17:57.091Z,55.10
2022-12-18T17:20:31.517Z,53.10
2022-12-18T17:23:08.157Z,50.00
2022-12-18T17:25:44.677Z,60.60
2022-12-18T17:28:17.541Z,53.90
2022-12-18T17:30:51.044Z,59.70
2022-12-18T17:33:24.282Z,56.50
2022-12-18T17:36:02.113Z,61.50
2022-12-18T17:38:36.940Z,54.10
2022-12-18T17:41:12.338Z,54.00
2022-12-18T17:43:52.559Z,58.80
2022-12-18T17:46:32.177Z,55.60
2022-12-18T17:49:07.057Z,56.20
2022-12-18T17:51:43.369Z,62.10
2022-12-18T17:54:19.333Z,67.00
2022-12-18T17:56:57.021Z,57.20
2022-12-18T17:59:34.181Z,63.90
2022-12-18T18:02:08.091Z,59.60
2022-12-18T18:04:42.496Z,59.30
2022-12-18T18:07:20.821Z,60.00
2022-12-18T18:09:55.594Z,59.30
2022-12-18T18:12:49.411Z,64.10
2022-12-18T18:15:25.127Z,58.80
2022-12-18T18:17:58.974Z,58.70
2022-12-18T18:20:33.565Z,50.70
2022-12-18T18:23:07.251Z,51.00
2022-12-18T18:25:44.724Z,53.20
2022-12-18T18:28:18.979Z,46.00
2022-12-18T18:30:52.589Z,51.40
2022-12-18T18:33:27.050Z,53.50
2022-12-18T18:36:01.332Z,44.50
2022-12-18T18:38:35.559Z,49.10
2022-12-18T18:41:10.378Z,42.10
2022-12-18T18:46:19.349Z,40.10
2022-12-18T18:48:52.604Z,46.80
2022-12-18T18:51:28.863Z,47.30
2022-12-18T18:54:06.123Z,47.50
2022-12-18T18:59:33.297Z,52.50
2022-12-18T19:02:07.133Z,51.80
2022-12-18T19:04:44.736Z,46.50
2022-12-18T19:07:29.469Z,47.40
2022-12-18T19:10:07.265Z,40.30
2022-12-18T19:12:57.613Z,44.20
2022-12-18T19:15:30.962Z,46.20
2022-12-18T19:18:04.833Z,45.90
2022-12-18T19:20:42.006Z,44.70
2022-12-18T19:23:15.293Z,40.10
2022-12-18T19:25:50.762Z,39.90
2022-12-18T19:28:34.456Z,41.60
2022-12-18T19:31:13.652Z,42.00
2022-12-18T19:33:52.630Z,43.00
2022-12-18T19:36:28.744Z,41.10
2022-12-18T19:39:06.599Z,45.50
2022-12-18T19:41:40.970Z,46.70
2022-12-18T19:46:52.224Z,45.30
2022-12-18T19:49:34.707Z,42.00
2022-12-18T19:52:12.510Z,42.30
2022-12-18T19:54:45.998Z,40.40
2022-12-18T19:57:19.220Z,44.00
2022-12-18T19:59:53.147Z,43.60
2022-12-18T20:02:29.726Z,42.00
2022-12-18T20:05:08.994Z,38.50
2022-12-18T20:07:42.394Z,34.30
2022-12-18T20:10:19.492Z,39.00
2022-12-18T20:12:55.243Z,43.00
2022-12-18T20:15:29.908Z,39.00
2022-12-18T20:18:02.989Z,36.10
2022-12-18T20:20:37.421Z,34.00
2022-12-18T20:25:41.887Z,31.80
2022-12-18T20:28:15.325Z,28.20
2022-12-18T20:30:49.531Z,32.60
2022-12-18T20:33:30.418Z,37.60
2022-12-18T20:36:07.737Z,35.00
2022-12-18T20:38:40.933Z,34.00
2022-12-18T20:41:22.386Z,37.30
2022-12-18T20:43:55.693Z,39.60
2022-12-18T20:46:28.330Z,40.10
2022-12-18T20:49:02.204Z,39.30
2022-12-18T20:51:35.957Z,36.50
2022-12-18T20:54:12.899Z,35.40
2022-12-18T20:56:59.217Z,33.60
2022-12-18T20:59:37.680Z,36.00
2022-12-18T21:02:09.793Z,31.80
2022-12-18T21:04:42.873Z,36.30
2022-12-18T21:07:16.199Z,30.30
2022-12-18T21:09:50.438Z,31.90
2022-12-18T21:12:43.949Z,30.30
2022-12-18T21:15:31.761Z,28.20
2022-12-18T21:18:03.711Z,27.60
2022-12-18T21:20:36.395Z,30.20
2022-12-18T21:23:16.470Z,28.20
2022-12-18T21:25:54.724Z,33.80
2022-12-18T21:28:32.295Z,35.60
2022-12-18T21:31:08.139Z,27.60
2022-12-18T21:33:43.518Z,26.50
2022-12-18T21:36:16.270Z,31.40
2022-12-18T21:38:48.732Z,25.50
2022-12-18T21:41:42.276Z,20.20
2022-12-18T21:44:17.814Z,25.10
2022-12-18T21:46:58.232Z,29.00
2022-12-18T21:49:33.808Z,23.10
2022-12-18T21:52:06.178Z,22.70
2022-12-18T21:54:38.771Z,25.90
2022-12-18T21:57:13.808Z,25.60
2022-12-18T21:59:47.354Z,25.00
2022-12-18T22:02:21.586Z,29.00
2022-12-18T22:04:55.815Z,27.40
2022-12-18T22:07:29.345Z,27.50
2022-12-18T22:10:02.015Z,24.60
2022-12-18T22:12:43.742Z,23.90
2022-12-18T22:15:21.489Z,22.60
2022-12-18T22:18:00.352Z,23.10
2022-12-18T22:20:32.776Z,20.30
2022-12-18T22:23:06.091Z,26.10
2022-12-18T22:25:39.907Z,24.80
2022-12-18T22:28:29.244Z,21.40
2022-12-18T22:31:01.300Z,21.10
2022-12-18T22:33:33.071Z,21.90
2022-12-18T22:36:14.123Z,21.50
2022-12-18T22:38:49.857Z,20.50
2022-12-18T22:41:22.661Z,21.00
2022-12-18T22:43:54.225Z,22.10
2022-12-18T22:46:28.506Z,20.30
2022-12-18T22:49:00.335Z,22.50
2022-12-18T22:51:32.374Z,22.70
2022-12-18T22:54:04.020Z,19.70
2022-12-18T22:56:35.501Z,21.30
2022-12-18T22:59:07.491Z,22.40
2022-12-18T23:01:40.379Z,23.70
2022-12-18T23:04:13.206Z,20.20
2022-12-18T23:06:45.621Z,24.50
2022-12-18T23:09:21.350Z,21.90
2022-12-18T23:11:52.916Z,22.50
2022-12-18T23:14:25.327Z,20.20
2022-12-18T23:16:57.161Z,20.30
2022-12-18T23:19:29.389Z,21.60
2022-12-18T23:22:05.038Z,20.80
2022-12-18T23:24:39.246Z,21.70
2022-12-18T23:27:11.602Z,20.00
2022-12-18T23:29:44.020Z,21.40
2022-12-18T23:32:16.976Z,24.90
2022-12-18T23:34:52.044Z,29.40
2022-12-18T23:37:56.965Z,25.10
2022-12-18T23:40:16.516Z,20.70
2022-12-18T23:42:48.129Z,29.40
2022-12-18T23:45:19.877Z,25.10
2022-12-18T23:47:51.488Z,23.60
2022-12-18T23:50:29.094Z,24.50
2022-12-18T23:53:05.266Z,23.60
2022-12-18T23:55:41.887Z,20.40
2022-12-18T23:58:19.892Z,20.20
